createdAt,value
2018-06-28T00:02:00.268Z,62.30
2018-06-28T00:04:02.213Z,62.30
2018-06-28T00:06:04.225Z,62.40
2018-06-28T00:08:06.188Z,62.40
2018-06-28T00:10:08.129Z,62.30
2018-06-28T00:12:10.091Z,62.30
2018-06-28T00:14:12.049Z,62.40
2018-06-28T00:16:14.075Z,62.40
2018-06-28T00:18:16.037Z,62.50
2018-06-28T00:20:17.992Z,62.40
2018-06-28T00:22:19.961Z,63.00
2018-06-28T00:24:21.924Z,62.50
2018-06-28T00:26:23.875Z,62.50
2018-06-28T00:28:25.841Z,62.30
2018-06-28T00:30:27.823Z,62.50
2018-06-28T00:32:29.757Z,63.00
2018-06-28T00:34:31.739Z,62.50
2018-06-28T00:36:33.683Z,62.50
2018-06-28T00:38:35.749Z,62.40
2018-06-28T00:40:37.709Z,62.40
2018-06-28T00:42:39.690Z,62.50
2018-06-28T00:44:41.665Z,62.40
2018-06-28T00:46:43.619Z,62.40
2018-06-28T00:48:45.593Z,62.50
2018-06-28T00:50:47.547Z,62.50
2018-06-28T00:52:49.521Z,62.50
2018-06-28T00:54:51.490Z,62.40
2018-06-28T00:56:53.460Z,62.50
2018-06-28T00:58:55.411Z,62.40
2018-06-28T01:00:57.384Z,62.50
2018-06-28T01:02:59.358Z,62.30
2018-06-28T01:05:01.317Z,62.40
2018-06-28T01:07:03.262Z,62.40
2018-06-28T01:09:05.214Z,62.40
2018-06-28T01:11:07.184Z,62.40
2018-06-28T01:13:09.146Z,62.30
2018-06-28T01:15:11.119Z,62.40
2018-06-28T01:17:13.084Z,62.30
2018-06-28T01:19:15.076Z,62.40
2018-06-28T01:21:17.024Z,62.30
2018-06-28T01:23:18.968Z,62.40
2018-06-28T01:25:20.957Z,62.30
2018-06-28T01:27:22.914Z,62.40
2018-06-28T01:29:24.883Z,62.40
2018-06-28T01:31:26.836Z,62.40
2018-06-28T01:33:28.794Z,62.50
2018-06-28T01:35:30.744Z,62.50
2018-06-28T01:37:32.714Z,62.40
2018-06-28T01:39:34.686Z,62.40
2018-06-28T01:41:36.691Z,62.40
2018-06-28T01:43:38.680Z,63.30
2018-06-28T01:45:40.637Z,62.50
2018-06-28T01:47:42.614Z,62.50
2018-06-28T01:49:44.569Z,62.50
2018-06-28T01:51:46.513Z,63.30
2018-06-28T01:53:48.482Z,62.50
2018-06-28T01:55:50.440Z,62.50
2018-06-28T01:57:52.414Z,62.50
2018-06-28T01:59:54.368Z,62.50
2018-06-28T02:01:56.331Z,63.30
2018-06-28T02:03:58.308Z,62.50
2018-06-28T02:06:00.254Z,62.50
2018-06-28T02:08:02.228Z,62.50
2018-06-28T02:10:04.180Z,62.50
2018-06-28T02:12:06.142Z,62.60
2018-06-28T02:14:08.103Z,62.60
2018-06-28T02:16:10.060Z,62.60
2018-06-28T02:20:14.246Z,62.60
2018-06-28T02:22:16.206Z,62.50
2018-06-28T02:24:18.187Z,62.50
2018-06-28T02:28:22.370Z,62.50
2018-06-28T02:30:24.348Z,62.50
2018-06-28T02:32:26.316Z,62.50
2018-06-28T02:34:28.288Z,62.50
2018-06-28T02:36:30.248Z,62.50
2018-06-28T02:38:32.208Z,62.50
2018-06-28T02:40:34.170Z,62.50
2018-06-28T02:42:36.118Z,62.50
2018-06-28T02:46:40.311Z,62.50
2018-06-28T02:48:42.260Z,62.50
2018-06-28T02:50:44.270Z,62.50
2018-06-28T02:52:46.204Z,62.50
2018-06-28T02:54:48.156Z,62.50
2018-06-28T02:56:50.124Z,62.50
2018-06-28T02:58:52.102Z,62.40
2018-06-28T03:00:54.052Z,62.40
2018-06-28T03:02:56.027Z,62.50
2018-06-28T03:04:57.986Z,62.40
2018-06-28T03:06:59.949Z,62.40
2018-06-28T03:09:01.911Z,62.50
2018-06-28T03:11:03.950Z,62.40
2018-06-28T03:13:05.907Z,62.50
2018-06-28T03:15:07.881Z,62.50
2018-06-28T03:17:09.825Z,62.50
2018-06-28T03:19:12.057Z,62.50
2018-06-28T03:21:14.010Z,62.50
2018-06-28T03:23:15.984Z,62.50
2018-06-28T03:25:17.953Z,62.40
2018-06-28T03:27:19.926Z,62.50
2018-06-28T03:29:21.876Z,62.40
2018-06-28T03:31:23.822Z,62.40
2018-06-28T03:33:25.802Z,62.50
2018-06-28T03:35:27.779Z,62.40
2018-06-28T03:37:29.734Z,62.40
2018-06-28T03:39:31.694Z,62.40
2018-06-28T03:41:33.644Z,62.50
2018-06-28T03:43:35.625Z,62.50
2018-06-28T03:45:37.561Z,62.40
2018-06-28T03:47:39.528Z,62.50
2018-06-28T03:49:41.484Z,62.40
2018-06-28T03:51:43.476Z,62.50
2018-06-28T03:53:45.452Z,62.50
2018-06-28T03:55:47.432Z,62.40
2018-06-28T03:57:49.733Z,62.70
2018-06-28T03:59:51.702Z,62.50
2018-06-28T04:01:53.658Z,62.40
2018-06-28T04:03:55.612Z,62.50
2018-06-28T04:05:57.584Z,62.50
2018-06-28T04:07:59.550Z,62.50
2018-06-28T04:10:01.503Z,62.50
2018-06-28T04:12:03.466Z,62.50
2018-06-28T04:14:05.432Z,62.50
2018-06-28T04:16:07.407Z,62.50
2018-06-28T04:18:09.387Z,62.60
2018-06-28T04:20:11.331Z,62.50
2018-06-28T04:22:13.305Z,62.50
2018-06-28T04:24:15.261Z,62.50
2018-06-28T04:26:17.225Z,62.50
2018-06-28T04:28:19.205Z,61.90
2018-06-28T04:30:21.169Z,62.50
2018-06-28T04:32:23.125Z,62.50
2018-06-28T04:34:25.117Z,62.50
2018-06-28T04:36:27.073Z,62.50
2018-06-28T04:38:29.034Z,62.50
2018-06-28T04:40:31.017Z,62.50
2018-06-28T04:42:32.971Z,62.50
2018-06-28T04:44:34.945Z,62.60
2018-06-28T04:46:36.905Z,62.50
2018-06-28T04:48:38.868Z,62.50
2018-06-28T04:50:40.837Z,62.50
2018-06-28T04:52:42.795Z,62.50
2018-06-28T04:54:44.761Z,62.60
2018-06-28T04:56:46.995Z,63.20
2018-06-28T04:58:48.949Z,62.60
2018-06-28T05:00:50.939Z,62.60
2018-06-28T05:02:52.907Z,62.50
2018-06-28T05:04:54.863Z,62.60
2018-06-28T05:06:56.881Z,62.50
2018-06-28T05:08:58.783Z,62.60
2018-06-28T05:11:00.761Z,62.50
2018-06-28T05:13:02.719Z,62.50
2018-06-28T05:15:04.795Z,62.50
2018-06-28T05:17:06.980Z,62.50
2018-06-28T05:19:08.878Z,62.50
2018-06-28T05:21:10.856Z,62.50
2018-06-28T05:23:12.808Z,62.50
2018-06-28T05:25:14.793Z,62.60
2018-06-28T05:27:16.768Z,62.40
2018-06-28T05:29:18.840Z,62.50
2018-06-28T05:31:20.795Z,62.60
2018-06-28T05:33:22.747Z,62.50
2018-06-28T05:35:24.725Z,62.70
2018-06-28T05:37:26.696Z,62.70
2018-06-28T05:39:28.652Z,62.70
2018-06-28T05:41:30.622Z,62.60
2018-06-28T05:43:32.589Z,62.50
2018-06-28T05:45:34.574Z,62.50
2018-06-28T05:47:36.555Z,62.50
2018-06-28T05:49:38.521Z,62.50
2018-06-28T05:51:40.495Z,62.50
2018-06-28T05:53:42.467Z,62.50
2018-06-28T05:55:44.427Z,62.40
2018-06-28T05:57:46.389Z,62.30
2018-06-28T05:59:48.355Z,62.30
2018-06-28T06:01:50.312Z,62.30
2018-06-28T06:03:52.253Z,62.30
2018-06-28T06:05:54.255Z,62.30
2018-06-28T06:07:56.191Z,62.30
2018-06-28T06:09:58.173Z,62.20
2018-06-28T06:12:00.204Z,62.20
2018-06-28T06:14:02.242Z,62.30
2018-06-28T06:16:04.105Z,62.20
2018-06-28T06:18:06.049Z,62.30
2018-06-28T06:20:08.031Z,62.20
2018-06-28T06:22:10.052Z,62.20
2018-06-28T06:24:11.969Z,62.20
2018-06-28T06:26:13.998Z,62.20
2018-06-28T06:28:15.921Z,62.20
2018-06-28T06:30:17.867Z,62.20
2018-06-28T06:32:19.829Z,62.30
2018-06-28T06:34:21.806Z,62.20
2018-06-28T06:36:23.767Z,62.30
2018-06-28T06:40:27.967Z,62.20
2018-06-28T06:42:29.928Z,62.30
2018-06-28T06:44:31.900Z,62.20
2018-06-28T06:46:33.869Z,62.20
2018-06-28T06:48:35.838Z,62.30
2018-06-28T06:50:37.780Z,62.30
2018-06-28T06:52:39.772Z,62.30
2018-06-28T06:54:41.784Z,62.30
2018-06-28T06:56:43.923Z,62.30
2018-06-28T06:58:45.907Z,62.30
2018-06-28T07:00:47.862Z,62.30
2018-06-28T07:02:49.832Z,62.30
2018-06-28T07:04:51.802Z,62.30
2018-06-28T07:06:53.765Z,62.20
2018-06-28T07:08:55.742Z,62.30
2018-06-28T07:10:57.705Z,62.30
2018-06-28T07:12:59.708Z,62.30
2018-06-28T07:15:01.654Z,62.30
2018-06-28T07:17:03.615Z,62.30
2018-06-28T07:19:05.600Z,62.30
2018-06-28T07:21:07.549Z,62.30
2018-06-28T07:23:09.566Z,62.30
2018-06-28T07:25:11.490Z,62.30
2018-06-28T07:27:13.445Z,62.30
2018-06-28T07:29:15.394Z,62.20
2018-06-28T07:31:17.741Z,62.20
2018-06-28T07:33:19.722Z,61.50
2018-06-28T07:35:21.678Z,62.20
2018-06-28T07:37:24.080Z,62.20
2018-06-28T07:39:26.045Z,62.20
2018-06-28T07:41:28.092Z,62.20
2018-06-28T07:43:30.043Z,62.20
2018-06-28T07:45:32.009Z,62.30
2018-06-28T07:47:33.960Z,62.30
2018-06-28T07:49:35.928Z,62.20
2018-06-28T07:51:37.898Z,62.20
2018-06-28T07:53:39.871Z,62.30
2018-06-28T07:55:41.829Z,62.30
2018-06-28T07:57:43.786Z,62.20
2018-06-28T07:59:45.754Z,62.20
2018-06-28T08:01:47.718Z,62.20
2018-06-28T08:03:49.698Z,62.20
2018-06-28T08:05:51.742Z,62.20
2018-06-28T08:07:53.704Z,62.20
2018-06-28T08:09:55.669Z,62.20
2018-06-28T08:11:57.656Z,62.20
2018-06-28T08:13:59.594Z,62.30
2018-06-28T08:16:01.567Z,62.30
2018-06-28T08:18:03.550Z,62.30
2018-06-28T08:20:05.537Z,62.30
2018-06-28T08:22:07.500Z,62.20
2018-06-28T08:24:09.452Z,62.20
2018-06-28T08:26:11.410Z,62.30
2018-06-28T08:28:13.439Z,62.20
2018-06-28T08:30:15.624Z,62.20
2018-06-28T08:32:17.591Z,62.20
2018-06-28T08:34:19.547Z,62.20
2018-06-28T08:36:21.518Z,62.20
2018-06-28T08:38:23.468Z,62.20
2018-06-28T08:40:25.429Z,62.20
2018-06-28T08:42:27.411Z,62.10
2018-06-28T08:44:29.356Z,62.10
2018-06-28T08:46:31.335Z,62.00
2018-06-28T08:48:33.276Z,62.00
2018-06-28T08:50:35.242Z,62.00
2018-06-28T08:52:37.240Z,62.00
2018-06-28T08:54:39.206Z,62.00
2018-06-28T08:56:41.177Z,62.00
2018-06-28T08:58:43.138Z,62.00
2018-06-28T09:00:45.104Z,61.90
2018-06-28T09:02:47.089Z,62.00
2018-06-28T09:04:49.048Z,61.90
2018-06-28T09:06:51.025Z,61.90
2018-06-28T09:08:52.993Z,61.80
2018-06-28T09:10:54.949Z,61.80
2018-06-28T09:12:56.905Z,61.80
2018-06-28T09:14:58.873Z,61.80
2018-06-28T09:17:00.831Z,61.80
2018-06-28T09:19:02.795Z,61.80
2018-06-28T09:21:04.767Z,61.70
2018-06-28T09:23:06.771Z,61.70
2018-06-28T09:25:08.699Z,61.70
2018-06-28T09:29:12.894Z,62.00
2018-06-28T09:31:14.855Z,61.70
2018-06-28T09:33:16.813Z,61.70
2018-06-28T09:35:18.785Z,61.70
2018-06-28T09:37:20.754Z,61.60
2018-06-28T09:39:22.708Z,61.60
2018-06-28T09:41:24.909Z,61.50
2018-06-28T09:43:26.863Z,61.50
2018-06-28T09:45:28.810Z,61.50
2018-06-28T09:47:30.789Z,61.50
2018-06-28T09:49:32.731Z,61.50
2018-06-28T09:51:34.742Z,61.50
2018-06-28T09:53:36.701Z,61.50
2018-06-28T09:55:38.649Z,61.50
2018-06-28T09:57:40.621Z,61.40
2018-06-28T09:59:42.577Z,61.40
2018-06-28T10:01:44.564Z,61.30
2018-06-28T10:03:46.511Z,61.80
2018-06-28T10:05:48.476Z,61.30
2018-06-28T10:07:50.449Z,61.30
2018-06-28T10:09:52.437Z,61.30
2018-06-28T10:11:54.377Z,61.20
2018-06-28T10:13:56.351Z,61.30
2018-06-28T10:15:58.308Z,61.30
2018-06-28T10:18:00.390Z,61.30
2018-06-28T10:20:02.305Z,61.30
2018-06-28T10:22:04.267Z,61.20
2018-06-28T10:24:06.233Z,61.20
2018-06-28T10:26:08.190Z,61.20
2018-06-28T10:28:10.189Z,61.20
2018-06-28T10:30:12.141Z,61.20
2018-06-28T10:32:14.113Z,61.20
2018-06-28T10:34:16.055Z,61.20
2018-06-28T10:36:18.009Z,61.20
2018-06-28T10:38:19.979Z,61.10
2018-06-28T10:40:21.948Z,61.00
2018-06-28T10:42:23.927Z,61.20
2018-06-28T10:44:25.887Z,61.20
2018-06-28T10:46:27.983Z,61.00
2018-06-28T10:48:29.987Z,60.40
2018-06-28T10:50:32.024Z,60.30
2018-06-28T10:52:33.960Z,60.20
2018-06-28T10:54:35.977Z,60.20
2018-06-28T10:56:37.917Z,60.30
2018-06-28T10:58:39.890Z,60.10
2018-06-28T11:00:41.880Z,60.00
2018-06-28T11:02:43.838Z,59.60
2018-06-28T11:04:46.021Z,59.60
2018-06-28T11:06:47.970Z,59.60
2018-06-28T11:08:49.920Z,59.60
2018-06-28T11:10:51.909Z,59.70
2018-06-28T11:12:53.931Z,59.70
2018-06-28T11:14:55.893Z,59.80
2018-06-28T11:16:57.884Z,59.80
2018-06-28T11:18:59.843Z,60.60
2018-06-28T11:21:01.826Z,60.00
2018-06-28T11:23:03.808Z,60.90
2018-06-28T11:25:05.812Z,60.00
2018-06-28T11:27:07.769Z,60.00
2018-06-28T11:29:09.731Z,60.00
2018-06-28T11:31:11.747Z,60.00
2018-06-28T11:33:13.710Z,60.00
2018-06-28T11:35:15.695Z,60.00
2018-06-28T11:37:17.656Z,60.00
2018-06-28T11:39:19.659Z,60.00
2018-06-28T11:41:21.657Z,59.90
2018-06-28T11:43:23.619Z,59.90
2018-06-28T11:45:25.594Z,59.90
2018-06-28T11:47:27.578Z,60.00
2018-06-28T11:49:29.536Z,60.70
2018-06-28T11:51:31.529Z,60.00
2018-06-28T11:53:33.482Z,60.30
2018-06-28T11:55:35.457Z,60.50
2018-06-28T11:57:37.442Z,60.20
2018-06-28T11:59:39.430Z,60.10
2018-06-28T12:01:41.408Z,60.00
2018-06-28T12:03:43.591Z,60.00
2018-06-28T12:05:45.576Z,60.00
2018-06-28T12:07:47.544Z,60.00
2018-06-28T12:09:49.515Z,60.00
2018-06-28T12:11:51.496Z,60.00
2018-06-28T12:13:53.500Z,60.00
2018-06-28T12:15:55.474Z,60.00
2018-06-28T12:17:57.454Z,60.00
2018-06-28T12:19:59.447Z,60.00
2018-06-28T12:22:01.452Z,60.00
2018-06-28T12:24:03.404Z,61.00
2018-06-28T12:26:05.398Z,60.10
2018-06-28T12:28:07.370Z,60.10
2018-06-28T12:30:09.342Z,60.20
2018-06-28T12:32:11.316Z,60.20
2018-06-28T12:34:13.292Z,60.20
2018-06-28T12:36:15.267Z,60.10
2018-06-28T12:38:17.249Z,60.10
2018-06-28T12:40:19.234Z,60.20
2018-06-28T12:42:21.211Z,60.40
2018-06-28T12:44:23.194Z,60.40
2018-06-28T12:46:25.227Z,60.30
2018-06-28T12:48:27.175Z,61.10
2018-06-28T12:50:29.147Z,60.20
2018-06-28T12:52:31.118Z,60.10
2018-06-28T12:54:33.089Z,60.20
2018-06-28T12:56:35.082Z,60.20
2018-06-28T12:58:37.044Z,60.20
2018-06-28T13:00:39.055Z,60.20
2018-06-28T13:02:41.029Z,60.20
2018-06-28T13:04:43.015Z,60.20
2018-06-28T13:06:44.985Z,60.20
2018-06-28T13:08:46.963Z,60.20
2018-06-28T13:10:48.930Z,60.30
2018-06-28T13:12:51.249Z,60.20
2018-06-28T13:14:53.220Z,60.30
2018-06-28T13:16:55.198Z,60.20
2018-06-28T13:18:57.166Z,60.20
2018-06-28T13:20:59.153Z,60.30
2018-06-28T13:23:01.134Z,60.30
2018-06-28T13:25:03.099Z,60.20
2018-06-28T13:27:05.089Z,60.40
2018-06-28T13:29:07.055Z,60.40
2018-06-28T13:31:09.037Z,60.40
2018-06-28T13:33:11.019Z,61.30
2018-06-28T13:37:15.246Z,60.70
2018-06-28T13:39:17.276Z,60.70
2018-06-28T13:41:19.356Z,60.70
2018-06-28T13:43:21.212Z,60.70
2018-06-28T13:45:23.192Z,60.70
2018-06-28T13:47:25.217Z,60.70
2018-06-28T13:49:27.211Z,60.70
2018-06-28T13:51:29.164Z,60.70
2018-06-28T13:53:31.167Z,60.70
2018-06-28T13:55:33.147Z,60.70
2018-06-28T13:59:37.359Z,60.70
2018-06-28T14:01:39.382Z,60.90
2018-06-28T14:03:41.284Z,60.90
2018-06-28T14:05:44.501Z,61.00
2018-06-28T14:07:46.448Z,61.00
2018-06-28T14:09:48.439Z,61.00
2018-06-28T14:11:50.426Z,61.10
2018-06-28T14:15:54.656Z,61.10
2018-06-28T14:17:56.625Z,61.00
2018-06-28T14:19:58.623Z,61.00
2018-06-28T14:22:00.593Z,61.10
2018-06-28T14:24:02.561Z,61.10
2018-06-28T14:26:04.555Z,61.10
2018-06-28T14:28:06.580Z,61.00
2018-06-28T14:30:08.488Z,61.00
2018-06-28T14:32:10.475Z,61.10
2018-06-28T14:34:12.468Z,61.20
2018-06-28T14:36:14.453Z,61.20
2018-06-28T14:38:16.425Z,61.20
2018-06-28T14:40:18.408Z,61.20
2018-06-28T14:42:20.395Z,61.20
2018-06-28T14:44:22.365Z,61.30
2018-06-28T14:46:24.345Z,61.30
2018-06-28T14:48:26.311Z,61.30
2018-06-28T14:50:28.315Z,61.30
2018-06-28T14:52:30.280Z,61.30
2018-06-28T14:54:32.261Z,61.30
2018-06-28T14:56:34.229Z,61.20
2018-06-28T14:58:36.285Z,61.20
2018-06-28T15:00:38.199Z,61.30
2018-06-28T15:02:40.171Z,61.30
2018-06-28T15:04:42.140Z,61.40
2018-06-28T15:06:44.110Z,61.40
2018-06-28T15:08:46.099Z,61.40
2018-06-28T15:10:48.061Z,61.40
2018-06-28T15:12:50.048Z,61.40
2018-06-28T15:14:51.994Z,61.70
2018-06-28T15:16:53.963Z,61.30
2018-06-28T15:18:55.957Z,61.30
2018-06-28T15:20:57.935Z,61.30
2018-06-28T15:22:59.921Z,61.30
2018-06-28T15:25:01.914Z,61.30
2018-06-28T15:27:03.900Z,61.20
2018-06-28T15:29:05.884Z,61.20
2018-06-28T15:31:07.886Z,61.30
2018-06-28T15:33:09.894Z,61.20
2018-06-28T15:35:12.991Z,61.10
2018-06-28T15:37:14.975Z,61.00
2018-06-28T15:39:16.960Z,61.10
2018-06-28T15:41:18.934Z,61.20
2018-06-28T15:43:20.912Z,61.10
2018-06-28T15:45:23.011Z,61.40
2018-06-28T15:47:24.994Z,61.30
2018-06-28T15:49:26.964Z,61.30
2018-06-28T15:51:28.930Z,61.40
2018-06-28T15:53:30.911Z,61.40
2018-06-28T15:55:32.919Z,61.30
2018-06-28T15:57:34.925Z,61.20
2018-06-28T15:59:36.894Z,61.10
2018-06-28T16:01:38.876Z,60.90
2018-06-28T16:03:40.884Z,60.40
2018-06-28T16:05:42.848Z,60.30
2018-06-28T16:07:44.816Z,60.20
2018-06-28T16:09:46.802Z,59.90
2018-06-28T16:11:48.798Z,59.80
2018-06-28T16:13:50.802Z,59.70
2018-06-28T16:15:52.794Z,59.60
2018-06-28T16:17:54.768Z,59.50
2018-06-28T16:19:56.823Z,59.50
2018-06-28T16:21:59.516Z,59.30
2018-06-28T16:24:01.502Z,59.20
2018-06-28T16:26:03.468Z,59.20
2018-06-28T16:28:05.432Z,58.80
2018-06-28T16:30:07.424Z,58.90
2018-06-28T16:32:09.394Z,58.70
2018-06-28T16:34:11.377Z,58.70
2018-06-28T16:36:13.360Z,58.70
2018-06-28T16:38:15.340Z,58.70
2018-06-28T16:40:17.336Z,58.50
2018-06-28T16:42:19.290Z,58.50
2018-06-28T16:44:21.251Z,58.40
2018-06-28T16:48:25.469Z,58.30
2018-06-28T16:50:27.456Z,58.20
2018-06-28T16:52:29.510Z,58.20
2018-06-28T16:54:31.424Z,58.20
2018-06-28T16:56:33.425Z,58.10
2018-06-28T16:58:35.438Z,58.00
2018-06-28T17:00:37.405Z,58.10
2018-06-28T17:02:39.714Z,58.10
2018-06-28T17:04:41.679Z,58.00
2018-06-28T17:06:43.650Z,58.00
2018-06-28T17:08:45.640Z,57.90
2018-06-28T17:10:47.604Z,57.90
2018-06-28T17:12:49.584Z,58.70
2018-06-28T17:14:51.560Z,57.80
2018-06-28T17:16:53.550Z,57.70
2018-06-28T17:18:55.530Z,57.80
2018-06-28T17:20:57.502Z,57.70
2018-06-28T17:22:59.507Z,57.80
2018-06-28T17:25:01.469Z,57.80
2018-06-28T17:27:03.536Z,57.70
2018-06-28T17:31:07.672Z,57.80
2018-06-28T17:33:09.632Z,57.60
2018-06-28T17:35:11.631Z,57.70
2018-06-28T17:37:13.605Z,57.60
2018-06-28T17:39:15.590Z,57.60
2018-06-28T17:41:17.574Z,57.60
2018-06-28T17:43:19.560Z,57.60
2018-06-28T17:45:21.538Z,57.40
2018-06-28T17:47:23.513Z,57.40
2018-06-28T17:49:25.523Z,57.40
2018-06-28T17:51:27.484Z,57.40
2018-06-28T17:53:29.483Z,57.30
2018-06-28T17:55:31.446Z,57.20
2018-06-28T17:57:33.436Z,57.10
2018-06-28T17:59:35.417Z,57.10
2018-06-28T18:01:37.451Z,57.20
2018-06-28T18:03:39.452Z,57.10
2018-06-28T18:05:41.433Z,57.10
2018-06-28T18:07:43.408Z,57.10
2018-06-28T18:09:45.373Z,57.10
2018-06-28T18:11:47.370Z,57.70
2018-06-28T18:15:51.600Z,57.30
2018-06-28T18:17:53.591Z,57.40
2018-06-28T18:19:55.561Z,57.70
2018-06-28T18:21:57.532Z,57.70
2018-06-28T18:23:59.498Z,57.80
2018-06-28T18:26:01.493Z,57.80
2018-06-28T18:28:03.477Z,57.80
2018-06-28T18:30:05.473Z,57.90
2018-06-28T18:32:07.445Z,57.90
2018-06-28T18:34:09.422Z,58.00
2018-06-28T18:36:11.391Z,58.00
2018-06-28T18:38:13.399Z,58.10
2018-06-28T18:40:15.369Z,58.10
2018-06-28T18:42:17.344Z,58.20
2018-06-28T18:44:19.322Z,58.20
2018-06-28T18:46:21.317Z,58.20
2018-06-28T18:48:23.273Z,58.30
2018-06-28T18:50:25.360Z,58.30
2018-06-28T18:52:27.544Z,58.40
2018-06-28T18:54:29.518Z,58.40
2018-06-28T18:56:31.510Z,58.50
2018-06-28T18:58:33.500Z,58.50
2018-06-28T19:00:35.479Z,58.50
2018-06-28T19:02:37.441Z,58.50
2018-06-28T19:04:39.423Z,58.60
2018-06-28T19:06:41.412Z,58.60
2018-06-28T19:08:43.411Z,58.60
2018-06-28T19:10:45.409Z,58.60
2018-06-28T19:12:47.427Z,58.70
2018-06-28T19:14:49.391Z,58.70
2018-06-28T19:16:51.392Z,58.80
2018-06-28T19:18:53.388Z,58.80
2018-06-28T19:20:55.371Z,58.90
2018-06-28T19:22:57.338Z,58.90
2018-06-28T19:24:59.325Z,58.90
2018-06-28T19:27:01.317Z,58.90
2018-06-28T19:29:03.285Z,58.90
2018-06-28T19:31:05.282Z,59.00
2018-06-28T19:33:07.253Z,58.90
2018-06-28T19:35:09.240Z,58.90
2018-06-28T19:37:11.234Z,58.90
2018-06-28T19:39:13.204Z,59.20
2018-06-28T19:41:15.242Z,59.10
2018-06-28T19:43:17.525Z,59.00
2018-06-28T19:45:19.518Z,59.10
2018-06-28T19:47:21.492Z,59.10
2018-06-28T19:49:23.473Z,59.10
2018-06-28T19:51:25.458Z,59.10
2018-06-28T19:53:27.464Z,59.10
2018-06-28T19:55:29.409Z,59.10
2018-06-28T19:57:31.464Z,59.10
2018-06-28T19:59:33.433Z,59.10
2018-06-28T20:01:35.391Z,59.20
2018-06-28T20:03:37.368Z,59.20
2018-06-28T20:05:39.342Z,59.20
2018-06-28T20:07:41.347Z,59.20
2018-06-28T20:11:45.584Z,59.20
2018-06-28T20:13:47.558Z,59.20
2018-06-28T20:15:49.542Z,59.20
2018-06-28T20:17:51.552Z,59.20
2018-06-28T20:19:53.520Z,59.30
2018-06-28T20:21:55.567Z,59.30
2018-06-28T20:23:57.532Z,59.30
2018-06-28T20:25:59.509Z,59.30
2018-06-28T20:28:01.526Z,59.40
2018-06-28T20:30:03.500Z,59.40
2018-06-28T20:32:05.484Z,59.40
2018-06-28T20:34:07.465Z,59.40
2018-06-28T20:36:09.448Z,59.40
2018-06-28T20:38:11.434Z,59.50
2018-06-28T20:40:13.426Z,59.40
2018-06-28T20:42:15.420Z,59.50
2018-06-28T20:44:17.392Z,59.60
2018-06-28T20:46:19.384Z,59.60
2018-06-28T20:48:21.367Z,60.00
2018-06-28T20:50:23.354Z,59.60
2018-06-28T20:52:25.363Z,59.60
2018-06-28T20:54:27.352Z,59.60
2018-06-28T20:56:29.327Z,59.70
2018-06-28T20:58:31.326Z,59.70
2018-06-28T21:00:33.306Z,59.70
2018-06-28T21:02:35.302Z,59.70
2018-06-28T21:04:37.257Z,59.70
2018-06-28T21:06:39.238Z,59.80
2018-06-28T21:08:41.246Z,59.80
2018-06-28T21:10:43.218Z,59.80
2018-06-28T21:12:45.180Z,59.80
2018-06-28T21:14:47.177Z,59.80
2018-06-28T21:16:49.172Z,60.20
2018-06-28T21:18:51.138Z,59.80
2018-06-28T21:20:53.127Z,59.70
2018-06-28T21:22:55.088Z,59.80
2018-06-28T21:24:57.150Z,59.90
2018-06-28T21:26:59.116Z,59.90
2018-06-28T21:29:01.109Z,59.90
2018-06-28T21:31:03.081Z,60.00
2018-06-28T21:33:05.062Z,60.00
2018-06-28T21:35:07.049Z,60.00
2018-06-28T21:37:09.025Z,60.00
2018-06-28T21:39:11.012Z,60.00
2018-06-28T21:41:12.981Z,60.10
2018-06-28T21:45:17.196Z,60.00
2018-06-28T21:47:19.190Z,60.00
2018-06-28T21:49:21.176Z,60.00
2018-06-28T21:51:23.180Z,60.10
2018-06-28T21:53:25.136Z,60.10
2018-06-28T21:55:27.196Z,60.20
2018-06-28T21:57:29.116Z,60.00
2018-06-28T21:59:31.082Z,60.00
2018-06-28T22:01:33.056Z,60.20
2018-06-28T22:03:35.033Z,60.20
2018-06-28T22:05:37.359Z,60.10
2018-06-28T22:07:39.320Z,60.20
2018-06-28T22:09:42.160Z,60.20
2018-06-28T22:11:44.170Z,60.20
2018-06-28T22:13:46.128Z,60.20
2018-06-28T22:15:48.126Z,60.30
2018-06-28T22:17:50.103Z,60.30
2018-06-28T22:19:52.114Z,60.30
2018-06-28T22:21:54.069Z,60.00
2018-06-28T22:23:56.062Z,60.40
2018-06-28T22:25:58.058Z,60.40
2018-06-28T22:28:00.064Z,60.50
2018-06-28T22:30:02.037Z,60.50
2018-06-28T22:32:04.021Z,60.50
2018-06-28T22:34:06.086Z,60.60
2018-06-28T22:36:07.999Z,61.10
2018-06-28T22:38:09.975Z,60.80
2018-06-28T22:40:12.005Z,61.80
2018-06-28T22:42:13.985Z,60.60
2018-06-28T22:44:15.953Z,60.50
2018-06-28T22:46:17.943Z,60.60
2018-06-28T22:48:19.917Z,60.60
2018-06-28T22:50:21.965Z,60.60
2018-06-28T22:52:24.139Z,60.70
2018-06-28T22:54:26.124Z,60.60
2018-06-28T22:56:28.106Z,60.70
2018-06-28T23:00:32.321Z,60.60
2018-06-28T23:02:34.317Z,60.60
2018-06-28T23:04:36.386Z,60.50
2018-06-28T23:08:40.630Z,60.50
2018-06-28T23:10:42.575Z,60.60
2018-06-28T23:12:44.588Z,61.10
2018-06-28T23:14:46.538Z,60.70
2018-06-28T23:16:48.529Z,60.60
2018-06-28T23:18:50.493Z,60.60
2018-06-28T23:20:52.465Z,60.70
2018-06-28T23:22:54.445Z,60.70
2018-06-28T23:24:56.431Z,60.70
2018-06-28T23:26:58.416Z,60.70
2018-06-28T23:29:00.388Z,60.70
2018-06-28T23:31:02.370Z,60.70
2018-06-28T23:33:04.368Z,60.70
2018-06-28T23:35:06.346Z,60.60
2018-06-28T23:37:08.340Z,60.70
2018-06-28T23:39:10.309Z,60.70
2018-06-28T23:41:12.545Z,60.70
2018-06-28T23:43:14.535Z,60.70
2018-06-28T23:45:16.493Z,60.70
2018-06-28T23:47:18.475Z,60.70
2018-06-28T23:49:20.458Z,60.80
2018-06-28T23:51:22.422Z,60.80
2018-06-28T23:53:24.399Z,60.70
2018-06-28T23:55:26.381Z,60.80
2018-06-28T23:57:28.357Z,60.80
2018-06-28T23:59:30.339Z,60.80
